sensor_id;sensor_type;location;lat;lon;timestamp;P1;durP1;ratioP1;P2;durP2;ratioP2
10154;SDS011;5118;48.570;7.916;2022-07-29T00:01:42;8.80;;;5.57;;
10154;SDS011;5118;48.570;7.916;2022-07-29T00:04:11;6.55;;;5.93;;
10154;SDS011;5118;48.570;7.916;2022-07-29T00:06:40;6.13;;;5.47;;
10154;SDS011;5118;48.570;7.916;2022-07-29T00:09:09;8.20;;;5.80;;
10154;SDS011;5118;48.570;7.916;2022-07-29T00:11:38;8.38;;;6.30;;
10154;SDS011;5118;48.570;7.916;2022-07-29T00:14:08;6.30;;;5.70;;
10154;SDS011;5118;48.570;7.916;2022-07-29T00:16:36;6.47;;;5.60;;
10154;SDS011;5118;48.570;7.916;2022-07-29T00:19:05;7.83;;;5.70;;
10154;SDS011;5118;48.570;7.916;2022-07-29T00:21:34;9.00;;;6.03;;
10154;SDS011;5118;48.570;7.916;2022-07-29T00:24:02;6.80;;;5.27;;
10154;SDS011;5118;48.570;7.916;2022-07-29T00:26:31;8.17;;;5.50;;
10154;SDS011;5118;48.570;7.916;2022-07-29T00:29:00;8.97;;;5.80;;
10154;SDS011;5118;48.570;7.916;2022-07-29T00:31:51;8.68;;;6.22;;
10154;SDS011;5118;48.570;7.916;2022-07-29T00:34:19;6.73;;;6.03;;
10154;SDS011;5118;48.570;7.916;2022-07-29T00:37:06;7.77;;;5.83;;
10154;SDS011;5118;48.570;7.916;2022-07-29T00:39:34;6.93;;;5.70;;
10154;SDS011;5118;48.570;7.916;2022-07-29T00:42:03;8.83;;;6.00;;
10154;SDS011;5118;48.570;7.916;2022-07-29T00:44:35;6.47;;;5.97;;
10154;SDS011;5118;48.570;7.916;2022-07-29T00:47:06;7.73;;;6.00;;
10154;SDS011;5118;48.570;7.916;2022-07-29T00:49:36;7.93;;;6.00;;
10154;SDS011;5118;48.570;7.916;2022-07-29T00:52:07;7.07;;;5.80;;
10154;SDS011;5118;48.570;7.916;2022-07-29T00:54:36;6.20;;;5.70;;
10154;SDS011;5118;48.570;7.916;2022-07-29T00:57:10;6.90;;;6.10;;
10154;SDS011;5118;48.570;7.916;2022-07-29T00:59:39;6.27;;;5.70;;
10154;SDS011;5118;48.570;7.916;2022-07-29T01:02:09;6.60;;;6.00;;
10154;SDS011;5118;48.570;7.916;2022-07-29T01:04:38;6.77;;;6.10;;
10154;SDS011;5118;48.570;7.916;2022-07-29T01:07:07;6.77;;;6.20;;
10154;SDS011;5118;48.570;7.916;2022-07-29T01:09:36;6.90;;;5.93;;
10154;SDS011;5118;48.570;7.916;2022-07-29T01:12:12;7.10;;;6.37;;
10154;SDS011;5118;48.570;7.916;2022-07-29T01:14:42;7.10;;;6.50;;
10154;SDS011;5118;48.570;7.916;2022-07-29T01:17:19;8.17;;;6.70;;
10154;SDS011;5118;48.570;7.916;2022-07-29T01:19:53;7.27;;;6.60;;
10154;SDS011;5118;48.570;7.916;2022-07-29T01:22:35;7.03;;;6.33;;
10154;SDS011;5118;48.570;7.916;2022-07-29T01:25:17;8.93;;;6.80;;
10154;SDS011;5118;48.570;7.916;2022-07-29T01:28:01;7.50;;;6.80;;
10154;SDS011;5118;48.570;7.916;2022-07-29T01:30:44;8.63;;;6.50;;
10154;SDS011;5118;48.570;7.916;2022-07-29T01:33:18;7.80;;;7.00;;
10154;SDS011;5118;48.570;7.916;2022-07-29T01:36:10;7.87;;;7.23;;
10154;SDS011;5118;48.570;7.916;2022-07-29T01:38:42;8.53;;;6.93;;
10154;SDS011;5118;48.570;7.916;2022-07-29T01:41:17;7.80;;;6.90;;
10154;SDS011;5118;48.570;7.916;2022-07-29T01:43:49;8.20;;;7.33;;
10154;SDS011;5118;48.570;7.916;2022-07-29T01:46:26;8.00;;;7.30;;
10154;SDS011;5118;48.570;7.916;2022-07-29T01:49:00;7.77;;;7.07;;
10154;SDS011;5118;48.570;7.916;2022-07-29T01:51:35;8.10;;;7.40;;
10154;SDS011;5118;48.570;7.916;2022-07-29T01:54:10;8.40;;;7.70;;
10154;SDS011;5118;48.570;7.916;2022-07-29T01:56:44;7.60;;;6.93;;
10154;SDS011;5118;48.570;7.916;2022-07-29T01:59:14;8.40;;;7.70;;
10154;SDS011;5118;48.570;7.916;2022-07-29T02:01:48;9.47;;;7.97;;
10154;SDS011;5118;48.570;7.916;2022-07-29T02:04:20;8.43;;;7.73;;
10154;SDS011;5118;48.570;7.916;2022-07-29T02:06:56;8.93;;;7.80;;
10154;SDS011;5118;48.570;7.916;2022-07-29T02:09:29;8.67;;;7.87;;
10154;SDS011;5118;48.570;7.916;2022-07-29T02:11:59;10.60;;;8.03;;
10154;SDS011;5118;48.570;7.916;2022-07-29T02:14:31;9.13;;;8.07;;
10154;SDS011;5118;48.570;7.916;2022-07-29T02:17:05;9.00;;;8.20;;
10154;SDS011;5118;48.570;7.916;2022-07-29T02:19:35;11.23;;;8.70;;
10154;SDS011;5118;48.570;7.916;2022-07-29T02:22:06;9.87;;;8.90;;
10154;SDS011;5118;48.570;7.916;2022-07-29T02:24:36;9.97;;;8.87;;
10154;SDS011;5118;48.570;7.916;2022-07-29T02:27:07;10.40;;;8.53;;
10154;SDS011;5118;48.570;7.916;2022-07-29T02:29:37;9.57;;;8.67;;
10154;SDS011;5118;48.570;7.916;2022-07-29T02:32:09;9.93;;;9.13;;
10154;SDS011;5118;48.570;7.916;2022-07-29T02:34:40;9.40;;;8.40;;
10154;SDS011;5118;48.570;7.916;2022-07-29T02:37:10;10.53;;;9.20;;
10154;SDS011;5118;48.570;7.916;2022-07-29T02:39:40;9.70;;;8.80;;
10154;SDS011;5118;48.570;7.916;2022-07-29T02:42:12;9.77;;;8.80;;
10154;SDS011;5118;48.570;7.916;2022-07-29T02:44:43;10.23;;;9.20;;
10154;SDS011;5118;48.570;7.916;2022-07-29T02:47:16;9.97;;;9.07;;
10154;SDS011;5118;48.570;7.916;2022-07-29T02:49:49;9.73;;;8.83;;
10154;SDS011;5118;48.570;7.916;2022-07-29T02:52:23;10.37;;;9.37;;
10154;SDS011;5118;48.570;7.916;2022-07-29T02:54:55;9.83;;;8.73;;
10154;SDS011;5118;48.570;7.916;2022-07-29T02:57:30;10.00;;;9.10;;
10154;SDS011;5118;48.570;7.916;2022-07-29T03:00:21;9.93;;;9.03;;
10154;SDS011;5118;48.570;7.916;2022-07-29T03:02:53;9.30;;;8.50;;
10154;SDS011;5118;48.570;7.916;2022-07-29T03:05:26;10.13;;;9.13;;
10154;SDS011;5118;48.570;7.916;2022-07-29T03:07:55;9.77;;;8.77;;
10154;SDS011;5118;48.570;7.916;2022-07-29T03:10:26;10.10;;;9.10;;
10154;SDS011;5118;48.570;7.916;2022-07-29T03:12:55;9.83;;;8.70;;
10154;SDS011;5118;48.570;7.916;2022-07-29T03:15:25;10.10;;;9.20;;
10154;SDS011;5118;48.570;7.916;2022-07-29T03:17:56;10.13;;;9.23;;
10154;SDS011;5118;48.570;7.916;2022-07-29T03:20:26;9.70;;;8.90;;
10154;SDS011;5118;48.570;7.916;2022-07-29T03:22:55;9.97;;;9.10;;
10154;SDS011;5118;48.570;7.916;2022-07-29T03:25:23;10.13;;;9.33;;
10154;SDS011;5118;48.570;7.916;2022-07-29T03:27:53;10.70;;;9.87;;
10154;SDS011;5118;48.570;7.916;2022-07-29T03:30:22;10.80;;;9.90;;
10154;SDS011;5118;48.570;7.916;2022-07-29T03:32:52;11.37;;;10.27;;
10154;SDS011;5118;48.570;7.916;2022-07-29T03:35:25;11.63;;;10.60;;
10154;SDS011;5118;48.570;7.916;2022-07-29T03:37:54;11.40;;;10.50;;
10154;SDS011;5118;48.570;7.916;2022-07-29T03:40:24;12.10;;;11.07;;
10154;SDS011;5118;48.570;7.916;2022-07-29T03:42:59;11.83;;;10.83;;
10154;SDS011;5118;48.570;7.916;2022-07-29T03:45:29;11.87;;;10.83;;
10154;SDS011;5118;48.570;7.916;2022-07-29T03:48:01;11.97;;;10.77;;
10154;SDS011;5118;48.570;7.916;2022-07-29T03:50:34;13.17;;;12.07;;
10154;SDS011;5118;48.570;7.916;2022-07-29T03:53:04;13.10;;;12.10;;
10154;SDS011;5118;48.570;7.916;2022-07-29T03:55:33;15.37;;;12.33;;
10154;SDS011;5118;48.570;7.916;2022-07-29T03:58:08;12.70;;;11.70;;
10154;SDS011;5118;48.570;7.916;2022-07-29T04:00:38;12.80;;;11.60;;
10154;SDS011;5118;48.570;7.916;2022-07-29T04:03:09;11.80;;;10.80;;
10154;SDS011;5118;48.570;7.916;2022-07-29T04:05:42;12.77;;;11.60;;
10154;SDS011;5118;48.570;7.916;2022-07-29T04:08:11;12.90;;;11.70;;
10154;SDS011;5118;48.570;7.916;2022-07-29T04:10:39;13.17;;;11.97;;
10154;SDS011;5118;48.570;7.916;2022-07-29T04:13:08;13.87;;;12.43;;
10154;SDS011;5118;48.570;7.916;2022-07-29T04:15:36;13.17;;;11.90;;
10154;SDS011;5118;48.570;7.916;2022-07-29T04:18:05;13.20;;;11.90;;
10154;SDS011;5118;48.570;7.916;2022-07-29T04:20:33;12.67;;;11.53;;
10154;SDS011;5118;48.570;7.916;2022-07-29T04:23:03;13.37;;;12.20;;
10154;SDS011;5118;48.570;7.916;2022-07-29T04:25:31;12.80;;;11.50;;
10154;SDS011;5118;48.570;7.916;2022-07-29T04:28:00;13.33;;;12.23;;
10154;SDS011;5118;48.570;7.916;2022-07-29T04:30:29;12.90;;;11.80;;
10154;SDS011;5118;48.570;7.916;2022-07-29T04:32:58;13.00;;;11.83;;
10154;SDS011;5118;48.570;7.916;2022-07-29T04:35:27;12.60;;;11.40;;
10154;SDS011;5118;48.570;7.916;2022-07-29T04:38:05;12.57;;;11.33;;
10154;SDS011;5118;48.570;7.916;2022-07-29T04:40:42;12.10;;;11.10;;
10154;SDS011;5118;48.570;7.916;2022-07-29T04:43:12;12.20;;;11.10;;
10154;SDS011;5118;48.570;7.916;2022-07-29T04:45:48;11.93;;;10.90;;
10154;SDS011;5118;48.570;7.916;2022-07-29T04:48:16;11.43;;;10.53;;
10154;SDS011;5118;48.570;7.916;2022-07-29T04:50:48;11.77;;;10.60;;
10154;SDS011;5118;48.570;7.916;2022-07-29T04:53:18;11.60;;;10.50;;
10154;SDS011;5118;48.570;7.916;2022-07-29T04:55:46;11.20;;;10.10;;
10154;SDS011;5118;48.570;7.916;2022-07-29T04:58:15;11.57;;;10.47;;
10154;SDS011;5118;48.570;7.916;2022-07-29T05:00:43;11.03;;;10.13;;
10154;SDS011;5118;48.570;7.916;2022-07-29T05:03:12;10.40;;;9.50;;
10154;SDS011;5118;48.570;7.916;2022-07-29T05:05:40;10.87;;;9.87;;
10154;SDS011;5118;48.570;7.916;2022-07-29T05:08:09;10.53;;;9.67;;
10154;SDS011;5118;48.570;7.916;2022-07-29T05:10:39;9.47;;;8.63;;
10154;SDS011;5118;48.570;7.916;2022-07-29T05:13:07;9.83;;;9.03;;
10154;SDS011;5118;48.570;7.916;2022-07-29T05:15:36;10.63;;;9.57;;
10154;SDS011;5118;48.570;7.916;2022-07-29T05:18:05;10.53;;;9.63;;
10154;SDS011;5118;48.570;7.916;2022-07-29T05:20:34;9.80;;;8.90;;
10154;SDS011;5118;48.570;7.916;2022-07-29T05:23:03;9.50;;;8.60;;
10154;SDS011;5118;48.570;7.916;2022-07-29T05:25:31;9.47;;;8.77;;
10154;SDS011;5118;48.570;7.916;2022-07-29T05:28:11;10.17;;;9.23;;
10154;SDS011;5118;48.570;7.916;2022-07-29T05:30:40;10.10;;;9.07;;
10154;SDS011;5118;48.570;7.916;2022-07-29T05:33:11;10.30;;;9.37;;
10154;SDS011;5118;48.570;7.916;2022-07-29T05:35:59;10.03;;;9.13;;
10154;SDS011;5118;48.570;7.916;2022-07-29T05:38:28;10.33;;;9.30;;
10154;SDS011;5118;48.570;7.916;2022-07-29T05:40:57;10.13;;;8.87;;
10154;SDS011;5118;48.570;7.916;2022-07-29T05:43:28;10.10;;;9.07;;
10154;SDS011;5118;48.570;7.916;2022-07-29T05:45:57;9.40;;;8.50;;
10154;SDS011;5118;48.570;7.916;2022-07-29T05:48:25;9.90;;;8.53;;
10154;SDS011;5118;48.570;7.916;2022-07-29T05:50:54;9.57;;;8.40;;
10154;SDS011;5118;48.570;7.916;2022-07-29T05:53:23;9.57;;;8.67;;
10154;SDS011;5118;48.570;7.916;2022-07-29T05:55:52;8.90;;;8.00;;
10154;SDS011;5118;48.570;7.916;2022-07-29T05:58:20;9.00;;;8.10;;
10154;SDS011;5118;48.570;7.916;2022-07-29T06:00:50;8.43;;;7.50;;
10154;SDS011;5118;48.570;7.916;2022-07-29T06:03:19;8.63;;;7.82;;
10154;SDS011;5118;48.570;7.916;2022-07-29T06:05:47;10.37;;;8.40;;
10154;SDS011;5118;48.570;7.916;2022-07-29T06:08:16;9.20;;;7.90;;
10154;SDS011;5118;48.570;7.916;2022-07-29T06:10:44;14.35;;;8.10;;
10154;SDS011;5118;48.570;7.916;2022-07-29T06:13:13;10.88;;;7.68;;
10154;SDS011;5118;48.570;7.916;2022-07-29T06:15:42;8.90;;;8.10;;
10154;SDS011;5118;48.570;7.916;2022-07-29T06:18:13;8.10;;;7.43;;
10154;SDS011;5118;48.570;7.916;2022-07-29T06:20:41;8.57;;;7.78;;
10154;SDS011;5118;48.570;7.916;2022-07-29T06:23:10;8.65;;;7.82;;
10154;SDS011;5118;48.570;7.916;2022-07-29T06:25:39;7.90;;;7.18;;
10154;SDS011;5118;48.570;7.916;2022-07-29T06:28:08;8.40;;;7.60;;
10154;SDS011;5118;48.570;7.916;2022-07-29T06:30:36;8.27;;;7.50;;
10154;SDS011;5118;48.570;7.916;2022-07-29T06:33:05;9.85;;;7.68;;
10154;SDS011;5118;48.570;7.916;2022-07-29T06:35:35;8.90;;;8.00;;
10154;SDS011;5118;48.570;7.916;2022-07-29T06:38:08;10.77;;;7.40;;
10154;SDS011;5118;48.570;7.916;2022-07-29T06:40:57;8.30;;;7.40;;
10154;SDS011;5118;48.570;7.916;2022-07-29T06:43:31;10.60;;;7.47;;
10154;SDS011;5118;48.570;7.916;2022-07-29T06:46:18;8.75;;;6.40;;
10154;SDS011;5118;48.570;7.916;2022-07-29T06:48:49;8.88;;;6.57;;
10154;SDS011;5118;48.570;7.916;2022-07-29T06:51:20;11.48;;;7.53;;
10154;SDS011;5118;48.570;7.916;2022-07-29T06:53:50;8.60;;;7.10;;
10154;SDS011;5118;48.570;7.916;2022-07-29T06:56:38;13.23;;;7.32;;
10154;SDS011;5118;48.570;7.916;2022-07-29T06:59:08;15.07;;;6.15;;
10154;SDS011;5118;48.570;7.916;2022-07-29T07:01:39;8.80;;;5.72;;
10154;SDS011;5118;48.570;7.916;2022-07-29T07:04:09;11.57;;;6.05;;
10154;SDS011;5118;48.570;7.916;2022-07-29T07:06:40;10.32;;;6.25;;
10154;SDS011;5118;48.570;7.916;2022-07-29T07:09:08;11.23;;;6.55;;
10154;SDS011;5118;48.570;7.916;2022-07-29T07:11:37;11.00;;;6.35;;
10154;SDS011;5118;48.570;7.916;2022-07-29T07:14:05;14.55;;;6.45;;
10154;SDS011;5118;48.570;7.916;2022-07-29T07:16:34;10.25;;;6.55;;
10154;SDS011;5118;48.570;7.916;2022-07-29T07:19:03;8.18;;;6.63;;
10154;SDS011;5118;48.570;7.916;2022-07-29T07:21:32;8.07;;;6.68;;
10154;SDS011;5118;48.570;7.916;2022-07-29T07:24:03;6.93;;;6.22;;
10154;SDS011;5118;48.570;7.916;2022-07-29T07:26:32;9.43;;;7.00;;
10154;SDS011;5118;48.570;7.916;2022-07-29T07:29:01;10.77;;;6.70;;
10154;SDS011;5118;48.570;7.916;2022-07-29T07:31:30;7.88;;;6.60;;
10154;SDS011;5118;48.570;7.916;2022-07-29T07:33:58;7.45;;;6.65;;
10154;SDS011;5118;48.570;7.916;2022-07-29T07:36:27;13.93;;;6.70;;
10154;SDS011;5118;48.570;7.916;2022-07-29T07:38:55;10.02;;;6.22;;
10154;SDS011;5118;48.570;7.916;2022-07-29T07:41:25;7.15;;;6.25;;
10154;SDS011;5118;48.570;7.916;2022-07-29T07:43:58;9.25;;;5.60;;
10154;SDS011;5118;48.570;7.916;2022-07-29T07:46:26;9.27;;;5.13;;
10154;SDS011;5118;48.570;7.916;2022-07-29T07:48:55;6.93;;;5.18;;
10154;SDS011;5118;48.570;7.916;2022-07-29T07:51:23;7.38;;;4.90;;
10154;SDS011;5118;48.570;7.916;2022-07-29T07:53:52;6.43;;;4.90;;
10154;SDS011;5118;48.570;7.916;2022-07-29T07:56:23;5.43;;;4.82;;
10154;SDS011;5118;48.570;7.916;2022-07-29T07:58:53;5.72;;;5.13;;
10154;SDS011;5118;48.570;7.916;2022-07-29T08:01:21;8.80;;;5.10;;
10154;SDS011;5118;48.570;7.916;2022-07-29T08:03:50;5.90;;;4.88;;
10154;SDS011;5118;48.570;7.916;2022-07-29T08:06:18;6.40;;;4.70;;
10154;SDS011;5118;48.570;7.916;2022-07-29T08:08:46;7.18;;;4.43;;
10154;SDS011;5118;48.570;7.916;2022-07-29T08:11:15;5.85;;;4.63;;
10154;SDS011;5118;48.570;7.916;2022-07-29T08:13:44;5.13;;;4.60;;
10154;SDS011;5118;48.570;7.916;2022-07-29T08:16:15;4.90;;;4.00;;
10154;SDS011;5118;48.570;7.916;2022-07-29T08:18:44;4.82;;;4.40;;
10154;SDS011;5118;48.570;7.916;2022-07-29T08:21:14;4.80;;;4.30;;
10154;SDS011;5118;48.570;7.916;2022-07-29T08:23:44;7.43;;;4.75;;
10154;SDS011;5118;48.570;7.916;2022-07-29T08:26:26;5.72;;;4.50;;
10154;SDS011;5118;48.570;7.916;2022-07-29T08:28:56;5.82;;;4.28;;
10154;SDS011;5118;48.570;7.916;2022-07-29T08:31:27;4.90;;;4.40;;
10154;SDS011;5118;48.570;7.916;2022-07-29T08:33:56;4.97;;;4.40;;
10154;SDS011;5118;48.570;7.916;2022-07-29T08:36:26;4.63;;;4.22;;
10154;SDS011;5118;48.570;7.916;2022-07-29T08:38:56;5.10;;;4.60;;
10154;SDS011;5118;48.570;7.916;2022-07-29T08:41:27;9.27;;;5.03;;
10154;SDS011;5118;48.570;7.916;2022-07-29T08:43:56;5.25;;;4.45;;
10154;SDS011;5118;48.570;7.916;2022-07-29T08:46:27;4.95;;;4.45;;
10154;SDS011;5118;48.570;7.916;2022-07-29T08:48:56;4.80;;;4.28;;
10154;SDS011;5118;48.570;7.916;2022-07-29T08:51:25;4.72;;;3.97;;
10154;SDS011;5118;48.570;7.916;2022-07-29T08:53:56;7.88;;;4.20;;
10154;SDS011;5118;48.570;7.916;2022-07-29T08:56:25;6.15;;;4.00;;
10154;SDS011;5118;48.570;7.916;2022-07-29T08:58:56;7.90;;;4.47;;
10154;SDS011;5118;48.570;7.916;2022-07-29T09:01:33;5.90;;;3.90;;
10154;SDS011;5118;48.570;7.916;2022-07-29T09:04:10;5.70;;;4.35;;
10154;SDS011;5118;48.570;7.916;2022-07-29T09:06:42;8.13;;;4.60;;
10154;SDS011;5118;48.570;7.916;2022-07-29T09:09:13;5.82;;;4.13;;
10154;SDS011;5118;48.570;7.916;2022-07-29T09:11:42;6.82;;;3.97;;
10154;SDS011;5118;48.570;7.916;2022-07-29T09:14:12;7.30;;;4.10;;
10154;SDS011;5118;48.570;7.916;2022-07-29T09:16:47;7.53;;;4.28;;
10154;SDS011;5118;48.570;7.916;2022-07-29T09:19:22;7.05;;;3.70;;
10154;SDS011;5118;48.570;7.916;2022-07-29T09:21:54;5.28;;;3.60;;
10154;SDS011;5118;48.570;7.916;2022-07-29T09:24:36;5.07;;;3.63;;
10154;SDS011;5118;48.570;7.916;2022-07-29T09:27:11;5.55;;;3.70;;
10154;SDS011;5118;48.570;7.916;2022-07-29T09:29:55;6.43;;;3.85;;
10154;SDS011;5118;48.570;7.916;2022-07-29T09:32:27;7.85;;;3.85;;
10154;SDS011;5118;48.570;7.916;2022-07-29T09:35:17;5.85;;;3.63;;
10154;SDS011;5118;48.570;7.916;2022-07-29T09:37:48;8.93;;;4.22;;
10154;SDS011;5118;48.570;7.916;2022-07-29T09:40:18;4.03;;;3.60;;
10154;SDS011;5118;48.570;7.916;2022-07-29T09:42:49;5.75;;;3.80;;
10154;SDS011;5118;48.570;7.916;2022-07-29T09:45:26;4.20;;;3.70;;
10154;SDS011;5118;48.570;7.916;2022-07-29T09:47:59;6.05;;;3.92;;
10154;SDS011;5118;48.570;7.916;2022-07-29T09:50:41;5.88;;;4.20;;
10154;SDS011;5118;48.570;7.916;2022-07-29T09:53:15;6.20;;;3.90;;
10154;SDS011;5118;48.570;7.916;2022-07-29T09:55:58;5.22;;;4.00;;
10154;SDS011;5118;48.570;7.916;2022-07-29T09:58:27;8.68;;;3.67;;
10154;SDS011;5118;48.570;7.916;2022-07-29T10:00:56;7.95;;;4.00;;
10154;SDS011;5118;48.570;7.916;2022-07-29T10:03:27;6.60;;;3.80;;
10154;SDS011;5118;48.570;7.916;2022-07-29T10:08:43;5.30;;;4.07;;
10154;SDS011;5118;48.570;7.916;2022-07-29T10:11:13;3.80;;;3.28;;
10154;SDS011;5118;48.570;7.916;2022-07-29T10:13:44;7.80;;;3.38;;
10154;SDS011;5118;48.570;7.916;2022-07-29T10:16:15;5.85;;;3.13;;
10154;SDS011;5118;48.570;7.916;2022-07-29T10:18:46;6.65;;;3.60;;
10154;SDS011;5118;48.570;7.916;2022-07-29T10:21:16;4.68;;;3.80;;
10154;SDS011;5118;48.570;7.916;2022-07-29T10:24:02;4.63;;;3.35;;
10154;SDS011;5118;48.570;7.916;2022-07-29T10:26:41;5.68;;;3.50;;
10154;SDS011;5118;48.570;7.916;2022-07-29T10:29:12;4.13;;;3.20;;
10154;SDS011;5118;48.570;7.916;2022-07-29T10:31:44;6.07;;;3.70;;
10154;SDS011;5118;48.570;7.916;2022-07-29T10:34:26;5.63;;;3.78;;
10154;SDS011;5118;48.570;7.916;2022-07-29T10:37:07;6.13;;;3.38;;
10154;SDS011;5118;48.570;7.916;2022-07-29T10:39:50;5.30;;;3.50;;
10154;SDS011;5118;48.570;7.916;2022-07-29T10:42:50;6.18;;;3.70;;
10154;SDS011;5118;48.570;7.916;2022-07-29T10:45:21;5.22;;;3.78;;
10154;SDS011;5118;48.570;7.916;2022-07-29T10:48:02;5.93;;;3.88;;
10154;SDS011;5118;48.570;7.916;2022-07-29T10:53:22;4.43;;;3.42;;
10154;SDS011;5118;48.570;7.916;2022-07-29T10:55:52;4.55;;;3.80;;
10154;SDS011;5118;48.570;7.916;2022-07-29T10:58:22;4.78;;;3.45;;
10154;SDS011;5118;48.570;7.916;2022-07-29T11:00:52;3.97;;;3.42;;
10154;SDS011;5118;48.570;7.916;2022-07-29T11:06:16;7.43;;;3.35;;
10154;SDS011;5118;48.570;7.916;2022-07-29T11:12:01;5.38;;;3.40;;
10154;SDS011;5118;48.570;7.916;2022-07-29T11:17:26;3.63;;;3.20;;
10154;SDS011;5118;48.570;7.916;2022-07-29T11:20:30;3.90;;;3.50;;
10154;SDS011;5118;48.570;7.916;2022-07-29T11:23:18;7.47;;;3.45;;
10154;SDS011;5118;48.570;7.916;2022-07-29T11:26:14;8.25;;;3.42;;
10154;SDS011;5118;48.570;7.916;2022-07-29T11:28:54;5.50;;;3.63;;
10154;SDS011;5118;48.570;7.916;2022-07-29T11:31:37;5.00;;;3.00;;
10154;SDS011;5118;48.570;7.916;2022-07-29T11:34:16;5.78;;;3.13;;
10154;SDS011;5118;48.570;7.916;2022-07-29T11:40:12;3.30;;;3.00;;
10154;SDS011;5118;48.570;7.916;2022-07-29T11:42:47;4.95;;;2.80;;
10154;SDS011;5118;48.570;7.916;2022-07-29T11:45:21;5.68;;;3.28;;
10154;SDS011;5118;48.570;7.916;2022-07-29T11:48:14;3.35;;;2.53;;
10154;SDS011;5118;48.570;7.916;2022-07-29T11:50:58;6.28;;;3.65;;
10154;SDS011;5118;48.570;7.916;2022-07-29T11:53:28;8.93;;;3.92;;
10154;SDS011;5118;48.570;7.916;2022-07-29T11:56:00;3.97;;;3.58;;
10154;SDS011;5118;48.570;7.916;2022-07-29T11:58:29;4.03;;;3.55;;
10154;SDS011;5118;48.570;7.916;2022-07-29T12:00:58;3.95;;;3.63;;
10154;SDS011;5118;48.570;7.916;2022-07-29T12:03:31;5.93;;;3.80;;
10154;SDS011;5118;48.570;7.916;2022-07-29T12:06:03;6.45;;;3.30;;
10154;SDS011;5118;48.570;7.916;2022-07-29T12:08:41;4.57;;;3.60;;
10154;SDS011;5118;48.570;7.916;2022-07-29T12:11:18;5.88;;;3.22;;
10154;SDS011;5118;48.570;7.916;2022-07-29T12:13:49;6.68;;;3.35;;
10154;SDS011;5118;48.570;7.916;2022-07-29T12:16:18;4.55;;;3.38;;
10154;SDS011;5118;48.570;7.916;2022-07-29T12:18:58;7.30;;;3.25;;
10154;SDS011;5118;48.570;7.916;2022-07-29T12:21:28;5.30;;;3.05;;
10154;SDS011;5118;48.570;7.916;2022-07-29T12:24:00;6.90;;;3.53;;
10154;SDS011;5118;48.570;7.916;2022-07-29T12:26:36;6.85;;;3.28;;
10154;SDS011;5118;48.570;7.916;2022-07-29T12:29:18;5.97;;;3.50;;
10154;SDS011;5118;48.570;7.916;2022-07-29T12:32:01;5.30;;;3.10;;
10154;SDS011;5118;48.570;7.916;2022-07-29T12:34:44;6.53;;;3.50;;
10154;SDS011;5118;48.570;7.916;2022-07-29T12:37:13;5.38;;;3.67;;
10154;SDS011;5118;48.570;7.916;2022-07-29T12:39:42;7.28;;;3.50;;
10154;SDS011;5118;48.570;7.916;2022-07-29T12:42:13;6.15;;;3.50;;
10154;SDS011;5118;48.570;7.916;2022-07-29T12:44:45;13.60;;;4.00;;
10154;SDS011;5118;48.570;7.916;2022-07-29T12:47:14;10.52;;;3.55;;
10154;SDS011;5118;48.570;7.916;2022-07-29T12:49:43;8.15;;;3.58;;
10154;SDS011;5118;48.570;7.916;2022-07-29T12:52:27;5.05;;;3.50;;
10154;SDS011;5118;48.570;7.916;2022-07-29T12:54:57;6.60;;;3.58;;
10154;SDS011;5118;48.570;7.916;2022-07-29T12:57:27;5.28;;;3.75;;
10154;SDS011;5118;48.570;7.916;2022-07-29T13:00:03;4.95;;;3.55;;
10154;SDS011;5118;48.570;7.916;2022-07-29T13:02:36;3.97;;;3.40;;
10154;SDS011;5118;48.570;7.916;2022-07-29T13:05:06;5.70;;;3.30;;
10154;SDS011;5118;48.570;7.916;2022-07-29T13:07:36;4.70;;;3.55;;
10154;SDS011;5118;48.570;7.916;2022-07-29T13:10:22;4.20;;;3.40;;
10154;SDS011;5118;48.570;7.916;2022-07-29T13:13:02;4.32;;;3.53;;
10154;SDS011;5118;48.570;7.916;2022-07-29T13:15:33;4.72;;;3.25;;
10154;SDS011;5118;48.570;7.916;2022-07-29T13:18:02;3.28;;;2.97;;
10154;SDS011;5118;48.570;7.916;2022-07-29T13:20:31;5.55;;;3.22;;
10154;SDS011;5118;48.570;7.916;2022-07-29T13:23:00;3.45;;;3.15;;
10154;SDS011;5118;48.570;7.916;2022-07-29T13:25:29;5.80;;;3.08;;
10154;SDS011;5118;48.570;7.916;2022-07-29T13:27:59;4.47;;;3.25;;
10154;SDS011;5118;48.570;7.916;2022-07-29T13:30:29;4.75;;;3.30;;
10154;SDS011;5118;48.570;7.916;2022-07-29T13:32:57;3.67;;;3.30;;
10154;SDS011;5118;48.570;7.916;2022-07-29T13:35:26;4.68;;;3.10;;
10154;SDS011;5118;48.570;7.916;2022-07-29T13:37:56;5.90;;;3.10;;
10154;SDS011;5118;48.570;7.916;2022-07-29T13:40:24;4.30;;;2.92;;
10154;SDS011;5118;48.570;7.916;2022-07-29T13:42:53;4.40;;;3.00;;
10154;SDS011;5118;48.570;7.916;2022-07-29T13:45:22;7.90;;;3.20;;
10154;SDS011;5118;48.570;7.916;2022-07-29T13:47:56;4.35;;;3.15;;
10154;SDS011;5118;48.570;7.916;2022-07-29T13:50:24;4.75;;;2.85;;
10154;SDS011;5118;48.570;7.916;2022-07-29T13:52:52;3.05;;;2.75;;
10154;SDS011;5118;48.570;7.916;2022-07-29T13:55:21;5.60;;;3.35;;
10154;SDS011;5118;48.570;7.916;2022-07-29T13:57:50;5.68;;;2.78;;
10154;SDS011;5118;48.570;7.916;2022-07-29T14:00:18;4.35;;;3.20;;
10154;SDS011;5118;48.570;7.916;2022-07-29T14:02:47;5.72;;;3.10;;
10154;SDS011;5118;48.570;7.916;2022-07-29T14:05:17;5.88;;;3.15;;
10154;SDS011;5118;48.570;7.916;2022-07-29T14:07:45;5.10;;;3.10;;
10154;SDS011;5118;48.570;7.916;2022-07-29T14:10:17;6.07;;;3.15;;
10154;SDS011;5118;48.570;7.916;2022-07-29T14:12:45;3.40;;;3.00;;
10154;SDS011;5118;48.570;7.916;2022-07-29T14:15:14;4.82;;;2.75;;
10154;SDS011;5118;48.570;7.916;2022-07-29T14:17:42;4.20;;;2.85;;
10154;SDS011;5118;48.570;7.916;2022-07-29T14:20:11;4.18;;;3.00;;
10154;SDS011;5118;48.570;7.916;2022-07-29T14:22:41;3.72;;;2.80;;
10154;SDS011;5118;48.570;7.916;2022-07-29T14:25:11;3.88;;;2.58;;
10154;SDS011;5118;48.570;7.916;2022-07-29T14:27:41;3.55;;;2.60;;
10154;SDS011;5118;48.570;7.916;2022-07-29T14:30:10;5.32;;;2.70;;
10154;SDS011;5118;48.570;7.916;2022-07-29T14:32:40;4.15;;;2.70;;
10154;SDS011;5118;48.570;7.916;2022-07-29T14:35:08;3.67;;;2.42;;
10154;SDS011;5118;48.570;7.916;2022-07-29T14:37:38;6.70;;;2.70;;
10154;SDS011;5118;48.570;7.916;2022-07-29T14:40:09;7.70;;;2.70;;
10154;SDS011;5118;48.570;7.916;2022-07-29T14:42:38;2.88;;;2.60;;
10154;SDS011;5118;48.570;7.916;2022-07-29T14:45:08;3.42;;;2.75;;
10154;SDS011;5118;48.570;7.916;2022-07-29T14:47:37;5.38;;;2.60;;
10154;SDS011;5118;48.570;7.916;2022-07-29T14:50:06;5.00;;;2.40;;
10154;SDS011;5118;48.570;7.916;2022-07-29T14:52:36;3.85;;;2.50;;
10154;SDS011;5118;48.570;7.916;2022-07-29T14:55:05;4.43;;;2.47;;
10154;SDS011;5118;48.570;7.916;2022-07-29T14:57:47;2.67;;;2.40;;
10154;SDS011;5118;48.570;7.916;2022-07-29T15:00:16;6.85;;;2.80;;
10154;SDS011;5118;48.570;7.916;2022-07-29T15:02:45;3.22;;;2.33;;
10154;SDS011;5118;48.570;7.916;2022-07-29T15:05:29;4.13;;;2.20;;
10154;SDS011;5118;48.570;7.916;2022-07-29T15:07:57;4.15;;;2.50;;
10154;SDS011;5118;48.570;7.916;2022-07-29T15:10:26;4.65;;;2.33;;
10154;SDS011;5118;48.570;7.916;2022-07-29T15:12:56;5.75;;;2.67;;
10154;SDS011;5118;48.570;7.916;2022-07-29T15:15:25;5.25;;;2.65;;
10154;SDS011;5118;48.570;7.916;2022-07-29T15:17:53;3.58;;;2.60;;
10154;SDS011;5118;48.570;7.916;2022-07-29T15:20:22;4.53;;;2.65;;
10154;SDS011;5118;48.570;7.916;2022-07-29T15:22:53;4.70;;;2.47;;
10154;SDS011;5118;48.570;7.916;2022-07-29T15:25:22;2.75;;;2.40;;
10154;SDS011;5118;48.570;7.916;2022-07-29T15:27:53;2.88;;;2.50;;
10154;SDS011;5118;48.570;7.916;2022-07-29T15:30:28;2.58;;;2.22;;
10154;SDS011;5118;48.570;7.916;2022-07-29T15:33:00;6.63;;;2.58;;
10154;SDS011;5118;48.570;7.916;2022-07-29T15:35:29;3.90;;;2.60;;
10154;SDS011;5118;48.570;7.916;2022-07-29T15:37:58;4.40;;;2.30;;
10154;SDS011;5118;48.570;7.916;2022-07-29T15:40:26;2.72;;;2.17;;
10154;SDS011;5118;48.570;7.916;2022-07-29T15:42:55;3.38;;;2.58;;
10154;SDS011;5118;48.570;7.916;2022-07-29T15:45:28;3.92;;;2.60;;